createdAt,value
2017-06-03T00:00:40.101Z,96.90
2017-06-03T00:03:09.086Z,96.90
2017-06-03T00:05:38.145Z,96.90
2017-06-03T00:08:06.409Z,96.90
2017-06-03T00:10:34.594Z,96.90
2017-06-03T00:13:03.641Z,97.20
2017-06-03T00:15:31.931Z,97.10
2017-06-03T00:18:00.153Z,97.20
2017-06-03T00:20:29.200Z,97.20
2017-06-03T00:22:57.425Z,97.10
2017-06-03T00:25:25.682Z,97.20
2017-06-03T00:27:53.921Z,97.10
2017-06-03T00:30:22.110Z,97.10
2017-06-03T00:32:50.380Z,97.20
2017-06-03T00:35:18.636Z,97.20
2017-06-03T00:37:46.852Z,97.20
2017-06-03T00:40:15.105Z,97.20
2017-06-03T00:42:43.321Z,97.10
2017-06-03T00:45:12.659Z,97.10
2017-06-03T00:47:40.985Z,97.00
2017-06-03T00:50:09.237Z,97.00
2017-06-03T00:52:37.461Z,97.00
2017-06-03T00:55:05.715Z,96.90
2017-06-03T00:57:34.707Z,96.90
2017-06-03T01:00:02.951Z,96.90
2017-06-03T01:02:31.192Z,97.20
2017-06-03T01:04:59.439Z,96.80
2017-06-03T01:07:27.712Z,96.80
2017-06-03T01:09:55.962Z,96.70
2017-06-03T01:12:24.207Z,96.80
2017-06-03T01:14:52.452Z,96.80
2017-06-03T01:17:20.687Z,96.90
2017-06-03T01:19:48.898Z,96.90
2017-06-03T01:22:17.176Z,97.00
2017-06-03T01:24:45.392Z,97.00
2017-06-03T01:27:13.650Z,97.00
2017-06-03T01:29:41.892Z,97.00
2017-06-03T01:32:10.131Z,97.00
2017-06-03T01:34:38.371Z,97.00
2017-06-03T01:37:06.626Z,97.00
2017-06-03T01:42:35.871Z,96.90
2017-06-03T01:45:04.107Z,96.90
2017-06-03T01:47:32.351Z,97.00
2017-06-03T01:50:00.601Z,97.00
2017-06-03T01:52:28.875Z,97.10
2017-06-03T01:54:57.107Z,97.10
2017-06-03T01:57:25.358Z,97.00
2017-06-03T01:59:53.525Z,97.00
2017-06-03T02:02:21.805Z,97.00
2017-06-03T02:04:50.032Z,97.00
2017-06-03T02:07:18.296Z,96.90
2017-06-03T02:09:46.540Z,96.90
2017-06-03T02:12:14.785Z,96.90
2017-06-03T02:14:43.785Z,97.00
2017-06-03T02:17:12.891Z,97.10
2017-06-03T02:19:41.157Z,97.00
2017-06-03T02:22:09.396Z,97.00
2017-06-03T02:24:37.641Z,97.00
2017-06-03T02:27:05.894Z,97.10
2017-06-03T02:29:34.125Z,97.10
2017-06-03T02:32:02.365Z,97.20
2017-06-03T02:34:30.615Z,97.30
2017-06-03T02:36:58.913Z,97.20
2017-06-03T02:39:27.129Z,97.10
2017-06-03T02:41:56.160Z,97.10
2017-06-03T02:44:24.441Z,97.10
2017-06-03T02:46:52.729Z,97.10
2017-06-03T02:49:21.024Z,97.10
2017-06-03T02:51:49.329Z,97.00
2017-06-03T02:54:18.314Z,97.30
2017-06-03T02:56:46.562Z,97.00
2017-06-03T02:59:14.803Z,97.00
2017-06-03T03:01:43.046Z,97.10
2017-06-03T03:04:12.044Z,97.40
2017-06-03T03:06:40.301Z,97.40
2017-06-03T03:09:09.300Z,97.50
2017-06-03T03:11:37.806Z,97.50
2017-06-03T03:14:06.055Z,97.40
2017-06-03T03:16:34.285Z,97.40
2017-06-03T03:19:02.529Z,97.20
2017-06-03T03:21:30.814Z,97.20
2017-06-03T03:23:59.063Z,97.30
2017-06-03T03:26:27.604Z,97.20
2017-06-03T03:28:55.887Z,97.20
2017-06-03T03:31:24.122Z,97.20
2017-06-03T03:33:52.370Z,97.20
2017-06-03T03:36:20.717Z,97.20
2017-06-03T03:38:48.971Z,97.20
2017-06-03T03:41:17.217Z,97.40
2017-06-03T03:43:45.416Z,97.60
2017-06-03T03:46:13.675Z,97.60
2017-06-03T03:48:41.962Z,97.60
2017-06-03T03:51:10.642Z,97.70
2017-06-03T03:53:38.898Z,97.60
2017-06-03T03:56:07.329Z,97.60
2017-06-03T03:58:36.342Z,98.00
2017-06-03T04:01:04.599Z,97.80
2017-06-03T04:03:32.857Z,97.80
2017-06-03T04:06:01.107Z,97.70
2017-06-03T04:08:29.343Z,97.70
2017-06-03T04:10:57.594Z,97.60
2017-06-03T04:13:25.765Z,97.50
2017-06-03T04:15:54.007Z,97.60
2017-06-03T04:18:22.220Z,97.50
2017-06-03T04:20:50.454Z,98.10
2017-06-03T04:23:18.686Z,98.50
2017-06-03T04:25:46.901Z,98.40
2017-06-03T04:28:15.175Z,97.90
2017-06-03T04:30:43.390Z,97.30
2017-06-03T04:33:11.635Z,96.50
2017-06-03T04:35:39.857Z,95.90
2017-06-03T04:38:08.099Z,95.90
2017-06-03T04:40:37.071Z,95.50
2017-06-03T04:43:05.336Z,95.50
2017-06-03T04:45:33.554Z,95.20
2017-06-03T04:48:01.834Z,94.90
2017-06-03T04:50:30.063Z,94.80
2017-06-03T04:52:58.306Z,94.60
2017-06-03T04:55:26.525Z,94.60
2017-06-03T04:57:54.783Z,94.30
2017-06-03T05:00:22.984Z,94.20
2017-06-03T05:02:51.274Z,94.60
2017-06-03T05:05:19.542Z,95.00
2017-06-03T05:07:47.805Z,95.30
2017-06-03T05:10:16.820Z,95.50
2017-06-03T05:12:45.329Z,95.50
2017-06-03T05:15:19.545Z,95.70
2017-06-03T05:17:48.021Z,95.90
2017-06-03T05:20:16.279Z,96.20
2017-06-03T05:22:44.567Z,96.30
2017-06-03T05:25:12.834Z,96.50
2017-06-03T05:27:41.060Z,96.60
2017-06-03T05:30:10.076Z,96.40
2017-06-03T05:32:38.315Z,96.40
2017-06-03T05:35:06.558Z,96.30
2017-06-03T05:37:34.836Z,96.30
2017-06-03T05:40:03.095Z,96.40
2017-06-03T05:42:31.315Z,96.80
2017-06-03T05:44:59.561Z,96.80
2017-06-03T05:47:27.786Z,96.80
2017-06-03T05:49:56.311Z,96.90
2017-06-03T05:52:24.534Z,96.90
2017-06-03T05:54:52.772Z,96.60
2017-06-03T05:57:26.658Z,96.70
2017-06-03T06:02:56.182Z,96.20
2017-06-03T06:05:24.401Z,96.20
2017-06-03T06:07:53.397Z,95.90
2017-06-03T06:10:22.410Z,95.80
2017-06-03T06:12:50.685Z,95.80
2017-06-03T06:15:19.229Z,95.40
2017-06-03T06:17:47.439Z,95.30
2017-06-03T06:20:15.658Z,95.80
2017-06-03T06:22:44.131Z,95.50
2017-06-03T06:25:12.351Z,95.40
2017-06-03T06:27:40.565Z,95.50
2017-06-03T06:30:08.810Z,96.00
2017-06-03T06:32:37.044Z,95.90
2017-06-03T06:35:05.496Z,95.80
2017-06-03T06:37:33.721Z,95.70
2017-06-03T06:40:01.944Z,95.70
2017-06-03T06:42:30.171Z,95.70
2017-06-03T06:44:58.373Z,95.30
2017-06-03T06:47:26.806Z,94.90
2017-06-03T06:49:55.813Z,94.70
2017-06-03T06:52:24.054Z,94.60
2017-06-03T06:54:52.281Z,94.60
2017-06-03T06:57:20.494Z,94.50
2017-06-03T06:59:49.050Z,94.40
2017-06-03T07:02:17.283Z,94.30
2017-06-03T07:04:45.516Z,94.10
2017-06-03T07:07:13.753Z,94.10
2017-06-03T07:09:41.958Z,94.30
2017-06-03T07:12:10.530Z,93.40
2017-06-03T07:14:39.004Z,92.70
2017-06-03T07:17:07.213Z,92.60
2017-06-03T07:19:35.454Z,92.70
2017-06-03T07:22:03.671Z,92.40
2017-06-03T07:24:32.957Z,92.50
2017-06-03T07:27:01.951Z,92.20
2017-06-03T07:29:30.174Z,92.10
2017-06-03T07:31:58.793Z,91.60
2017-06-03T07:34:27.045Z,91.50
2017-06-03T07:36:55.472Z,91.20
2017-06-03T07:39:23.693Z,91.20
2017-06-03T07:41:51.916Z,91.00
2017-06-03T07:44:21.128Z,90.40
2017-06-03T07:46:49.390Z,90.40
2017-06-03T07:49:17.662Z,90.00
2017-06-03T07:51:45.909Z,89.80
2017-06-03T07:54:14.201Z,89.50
2017-06-03T07:56:43.450Z,89.80
2017-06-03T07:59:11.693Z,89.70
2017-06-03T08:01:39.972Z,89.60
2017-06-03T08:04:08.249Z,90.20
2017-06-03T08:06:36.508Z,89.80
2017-06-03T08:09:05.761Z,86.90
2017-06-03T08:11:34.118Z,86.90
2017-06-03T08:14:02.342Z,88.30
2017-06-03T08:16:30.603Z,88.20
2017-06-03T08:18:58.858Z,86.80
2017-06-03T08:21:27.418Z,86.30
2017-06-03T08:23:55.655Z,87.30
2017-06-03T08:26:24.656Z,85.80
2017-06-03T08:28:52.918Z,85.80
2017-06-03T08:31:21.183Z,85.40
2017-06-03T08:33:50.450Z,85.60
2017-06-03T08:36:18.698Z,85.00
2017-06-03T08:38:46.957Z,85.80
2017-06-03T08:41:15.228Z,86.20
2017-06-03T08:43:43.495Z,85.40
2017-06-03T08:46:11.989Z,85.10
2017-06-03T08:48:40.228Z,84.50
2017-06-03T08:51:09.222Z,81.10
2017-06-03T08:53:38.328Z,80.20
2017-06-03T08:56:07.320Z,81.80
2017-06-03T08:58:36.078Z,82.50
2017-06-03T09:01:04.324Z,81.00
2017-06-03T09:03:32.574Z,81.50
2017-06-03T09:06:00.824Z,82.20
2017-06-03T09:08:29.830Z,80.90
2017-06-03T09:10:58.363Z,80.70
2017-06-03T09:13:26.616Z,78.90
2017-06-03T09:15:54.845Z,77.80
2017-06-03T09:19:05.767Z,78.70
2017-06-03T09:21:34.274Z,76.60
2017-06-03T09:24:02.485Z,75.90
2017-06-03T09:26:30.735Z,75.50
2017-06-03T09:31:59.778Z,74.20
2017-06-03T09:34:28.239Z,72.60
2017-06-03T09:36:56.462Z,70.80
2017-06-03T09:39:24.696Z,69.50
2017-06-03T09:41:52.967Z,67.30
2017-06-03T09:44:21.188Z,66.80
2017-06-03T09:46:49.772Z,66.70
2017-06-03T09:49:17.993Z,66.00
2017-06-03T09:51:46.221Z,62.30
2017-06-03T09:54:14.454Z,61.60
2017-06-03T09:56:42.671Z,60.40
2017-06-03T09:59:11.133Z,59.70
2017-06-03T10:01:39.385Z,61.10
2017-06-03T10:04:07.576Z,60.10
2017-06-03T10:06:35.805Z,59.30
2017-06-03T10:09:04.782Z,57.60
2017-06-03T10:11:33.262Z,57.00
2017-06-03T10:14:01.479Z,56.40
2017-06-03T10:16:29.712Z,55.60
2017-06-03T10:18:58.747Z,52.50
2017-06-03T10:21:26.964Z,52.50
2017-06-03T10:23:55.429Z,52.20
2017-06-03T10:26:23.662Z,49.20
2017-06-03T10:28:51.875Z,49.00
2017-06-03T10:31:20.176Z,49.70
2017-06-03T10:33:49.188Z,48.50
2017-06-03T10:36:17.725Z,48.40
2017-06-03T10:38:45.978Z,48.20
2017-06-03T10:41:14.212Z,48.70
2017-06-03T10:43:42.496Z,46.90
2017-06-03T10:46:10.808Z,46.40
2017-06-03T10:48:39.241Z,46.00
2017-06-03T10:51:07.494Z,44.40
2017-06-03T10:53:36.490Z,42.10
2017-06-03T10:56:05.510Z,41.00
2017-06-03T10:58:33.715Z,41.00
2017-06-03T11:01:03.549Z,42.10
2017-06-03T11:03:31.782Z,41.50
2017-06-03T11:05:59.910Z,41.10
2017-06-03T11:08:28.200Z,38.90
2017-06-03T11:10:56.421Z,37.60
2017-06-03T11:13:24.710Z,37.10
2017-06-03T11:15:52.882Z,36.20
2017-06-03T11:18:21.884Z,35.90
2017-06-03T11:20:50.115Z,35.90
2017-06-03T11:23:18.344Z,34.70
2017-06-03T11:25:47.597Z,35.90
2017-06-03T11:28:15.830Z,35.80
2017-06-03T11:30:44.050Z,35.40
2017-06-03T11:33:12.321Z,35.10
2017-06-03T11:35:40.564Z,33.60
2017-06-03T11:38:09.123Z,34.10
2017-06-03T11:40:37.390Z,35.00
2017-06-03T11:43:06.378Z,34.80
2017-06-03T11:45:35.418Z,35.70
2017-06-03T11:48:03.646Z,35.70
2017-06-03T11:50:32.946Z,33.20
2017-06-03T11:53:01.174Z,33.10
2017-06-03T11:55:29.399Z,32.60
2017-06-03T11:57:58.417Z,31.90
2017-06-03T12:00:26.673Z,31.90
2017-06-03T12:02:55.144Z,31.50
2017-06-03T12:05:24.136Z,31.70
2017-06-03T12:07:53.114Z,30.90
2017-06-03T12:10:21.617Z,30.80
2017-06-03T12:12:49.880Z,29.50
2017-06-03T12:15:18.112Z,29.70
2017-06-03T12:17:46.383Z,30.50
2017-06-03T12:20:14.639Z,31.10
2017-06-03T12:22:43.147Z,31.00
2017-06-03T12:25:11.364Z,30.40
2017-06-03T12:27:39.625Z,29.70
2017-06-03T12:30:07.869Z,28.50
2017-06-03T12:32:36.111Z,28.90
2017-06-03T12:35:04.589Z,29.60
2017-06-03T12:37:32.821Z,29.60
2017-06-03T12:40:01.828Z,27.90
2017-06-03T12:42:30.094Z,27.90
2017-06-03T12:44:59.079Z,27.70
2017-06-03T12:47:28.357Z,27.10
2017-06-03T12:49:56.594Z,27.10
2017-06-03T12:52:24.805Z,27.60
2017-06-03T12:54:53.065Z,27.10
2017-06-03T12:57:21.281Z,27.30
2017-06-03T12:59:49.545Z,28.10
2017-06-03T13:02:18.553Z,27.40
2017-06-03T13:04:46.815Z,27.40
2017-06-03T13:07:15.793Z,27.70
2017-06-03T13:09:44.794Z,27.00
2017-06-03T13:12:13.713Z,27.40
2017-06-03T13:14:41.996Z,27.30
2017-06-03T13:17:10.292Z,27.80
2017-06-03T13:19:38.553Z,27.80
2017-06-03T13:22:06.775Z,27.00
2017-06-03T13:24:35.814Z,27.40
2017-06-03T13:27:04.021Z,27.30
2017-06-03T13:29:32.285Z,26.70
2017-06-03T13:32:00.505Z,27.00
2017-06-03T13:34:28.749Z,27.40
2017-06-03T13:36:57.024Z,27.60
2017-06-03T13:39:25.294Z,27.40
2017-06-03T13:41:53.516Z,27.00
2017-06-03T13:44:21.764Z,26.60
2017-06-03T13:46:50.757Z,26.90
2017-06-03T13:49:18.991Z,26.80
2017-06-03T13:51:47.209Z,27.00
2017-06-03T13:54:16.233Z,27.00
2017-06-03T13:56:44.471Z,27.00
2017-06-03T13:59:12.700Z,26.80
2017-06-03T14:01:40.949Z,27.00
2017-06-03T14:04:09.173Z,27.00
2017-06-03T14:06:37.425Z,26.50
2017-06-03T14:09:05.641Z,26.40
2017-06-03T14:11:35.538Z,26.10
2017-06-03T14:14:04.533Z,26.10
2017-06-03T14:16:32.813Z,26.30
2017-06-03T14:19:01.037Z,26.30
2017-06-03T14:21:29.265Z,26.50
2017-06-03T14:23:58.166Z,26.50
2017-06-03T14:26:26.455Z,26.50
2017-06-03T14:28:54.683Z,26.10
2017-06-03T14:31:22.930Z,26.00
2017-06-03T14:33:51.150Z,25.80
2017-06-03T14:36:19.390Z,25.40
2017-06-03T14:38:47.632Z,25.80
2017-06-03T14:41:15.863Z,25.90
2017-06-03T14:43:44.116Z,25.40
2017-06-03T14:46:12.362Z,25.20
2017-06-03T14:48:40.577Z,24.70
2017-06-03T14:51:09.580Z,26.30
2017-06-03T14:53:38.584Z,26.30
2017-06-03T14:56:06.836Z,26.20
2017-06-03T14:58:35.067Z,26.30
2017-06-03T15:01:03.300Z,26.30
2017-06-03T15:03:31.527Z,26.50
2017-06-03T15:05:59.765Z,26.50
2017-06-03T15:08:27.984Z,26.10
2017-06-03T15:10:56.225Z,25.70
2017-06-03T15:13:24.465Z,25.60
2017-06-03T15:15:52.706Z,26.40
2017-06-03T15:18:20.941Z,26.60
2017-06-03T15:20:49.173Z,27.20
2017-06-03T15:23:18.190Z,27.50
2017-06-03T15:25:46.424Z,27.40
2017-06-03T15:28:14.668Z,27.00
2017-06-03T15:30:42.931Z,27.00
2017-06-03T15:33:11.158Z,27.00
2017-06-03T15:35:40.192Z,26.50
2017-06-03T15:38:08.425Z,26.50
2017-06-03T15:40:37.452Z,26.60
2017-06-03T15:43:05.689Z,26.60
2017-06-03T15:45:34.954Z,27.40
2017-06-03T15:48:03.167Z,27.40
2017-06-03T15:50:32.164Z,27.70
2017-06-03T15:53:00.406Z,27.60
2017-06-03T15:55:28.641Z,27.50
2017-06-03T15:57:56.933Z,27.90
2017-06-03T16:00:25.121Z,28.30
2017-06-03T16:02:54.159Z,29.00
2017-06-03T16:05:22.410Z,29.00
2017-06-03T16:07:51.426Z,29.10
2017-06-03T16:10:19.642Z,29.00
2017-06-03T16:12:48.127Z,29.20
2017-06-03T16:15:16.346Z,29.30
2017-06-03T16:17:44.592Z,29.20
2017-06-03T16:20:12.836Z,28.90
2017-06-03T16:22:41.097Z,29.80
2017-06-03T16:25:09.324Z,29.80
2017-06-03T16:27:37.552Z,30.20
2017-06-03T16:30:05.780Z,30.30
2017-06-03T16:32:34.799Z,30.40
2017-06-03T16:35:03.029Z,30.30
2017-06-03T16:37:31.345Z,31.10
2017-06-03T16:39:59.565Z,31.20
2017-06-03T16:42:27.811Z,31.10
2017-06-03T16:44:56.037Z,31.80
2017-06-03T16:47:24.344Z,32.50
2017-06-03T16:49:52.610Z,32.90
2017-06-03T16:52:20.777Z,33.30
2017-06-03T16:54:49.038Z,33.60
2017-06-03T16:57:17.296Z,34.20
2017-06-03T16:59:46.302Z,34.90
2017-06-03T17:02:14.572Z,34.20
2017-06-03T17:04:43.590Z,35.20
2017-06-03T17:07:11.825Z,35.10
2017-06-03T17:09:40.054Z,36.20
2017-06-03T17:12:08.296Z,36.60
2017-06-03T17:14:36.537Z,36.50
2017-06-03T17:17:04.805Z,36.70
2017-06-03T17:19:33.041Z,37.20
2017-06-03T17:22:01.233Z,37.30
2017-06-03T17:24:30.290Z,37.60
2017-06-03T17:26:58.571Z,37.50
2017-06-03T17:29:26.790Z,37.70
2017-06-03T17:31:55.237Z,37.30
2017-06-03T17:34:23.472Z,37.40
2017-06-03T17:36:52.465Z,38.50
2017-06-03T17:39:21.487Z,38.80
2017-06-03T17:41:49.652Z,38.70
2017-06-03T17:44:17.947Z,39.30
2017-06-03T17:46:46.174Z,40.20
2017-06-03T17:49:15.219Z,40.10
2017-06-03T17:51:43.484Z,40.00
2017-06-03T17:54:11.793Z,39.90
2017-06-03T17:56:40.005Z,40.30
2017-06-03T17:59:08.233Z,41.00
2017-06-03T18:01:36.482Z,41.60
2017-06-03T18:04:04.731Z,41.70
2017-06-03T18:06:32.956Z,41.80
2017-06-03T18:09:01.194Z,43.20
2017-06-03T18:11:29.424Z,44.60
2017-06-03T18:13:58.454Z,47.30
2017-06-03T18:16:26.679Z,47.30
2017-06-03T18:18:54.910Z,48.30
2017-06-03T18:21:23.147Z,49.50
2017-06-03T18:23:51.389Z,51.40
2017-06-03T18:26:19.580Z,53.30
2017-06-03T18:28:47.855Z,55.00
2017-06-03T18:31:16.898Z,57.60
2017-06-03T18:33:45.061Z,57.50
2017-06-03T18:36:13.356Z,57.90
2017-06-03T18:38:41.592Z,58.90
2017-06-03T18:41:09.833Z,59.30
2017-06-03T18:43:38.079Z,60.10
2017-06-03T18:46:06.325Z,61.00
2017-06-03T18:48:35.673Z,61.10
2017-06-03T18:51:04.492Z,61.60
2017-06-03T18:53:32.780Z,63.70
2017-06-03T18:56:01.001Z,65.10
2017-06-03T18:58:29.324Z,65.90
2017-06-03T19:00:57.619Z,66.00
2017-06-03T19:03:25.860Z,66.10
2017-06-03T19:05:54.865Z,67.50
2017-06-03T19:08:23.125Z,67.50
2017-06-03T19:10:52.107Z,69.80
2017-06-03T19:13:21.135Z,70.70
2017-06-03T19:15:49.363Z,70.70
2017-06-03T19:18:17.799Z,71.90
2017-06-03T19:20:46.038Z,72.50
2017-06-03T19:23:14.266Z,72.30
2017-06-03T19:25:42.546Z,71.80
2017-06-03T19:28:10.786Z,71.60
2017-06-03T19:30:39.024Z,71.80
2017-06-03T19:33:08.018Z,72.80
2017-06-03T19:35:37.029Z,74.20
2017-06-03T19:38:05.293Z,74.20
2017-06-03T19:40:33.556Z,75.40
2017-06-03T19:43:02.521Z,76.40
2017-06-03T19:45:30.758Z,76.20
2017-06-03T19:47:58.983Z,76.00
2017-06-03T19:50:28.004Z,76.20
2017-06-03T19:52:56.325Z,76.30
2017-06-03T19:55:24.586Z,76.70
2017-06-03T19:57:52.812Z,77.50
2017-06-03T20:00:21.828Z,79.00
2017-06-03T20:02:50.070Z,78.90
2017-06-03T20:05:18.333Z,79.40
2017-06-03T20:07:46.988Z,79.20
2017-06-03T20:10:15.238Z,79.20
2017-06-03T20:12:43.457Z,79.30
2017-06-03T20:15:11.705Z,79.20
2017-06-03T20:17:39.941Z,79.60
2017-06-03T20:20:08.214Z,80.20
2017-06-03T20:22:36.438Z,80.80
2017-06-03T20:25:04.686Z,81.00
2017-06-03T20:27:32.913Z,81.30
2017-06-03T20:30:01.972Z,81.90
2017-06-03T20:32:30.200Z,81.80
2017-06-03T20:34:58.472Z,82.00
2017-06-03T20:37:26.728Z,82.00
2017-06-03T20:39:55.749Z,82.40
2017-06-03T20:42:24.002Z,82.40
2017-06-03T20:44:52.327Z,82.30
2017-06-03T20:47:20.582Z,82.80
2017-06-03T20:49:48.843Z,84.00
2017-06-03T20:52:17.071Z,84.50
2017-06-03T20:54:46.126Z,84.60
2017-06-03T20:57:14.331Z,84.50
2017-06-03T20:59:42.572Z,84.50
2017-06-03T21:02:10.799Z,84.40
2017-06-03T21:04:39.827Z,84.10
2017-06-03T21:07:08.100Z,84.10
2017-06-03T21:09:36.324Z,83.30
2017-06-03T21:12:04.574Z,83.30
2017-06-03T21:14:32.806Z,83.50
2017-06-03T21:17:01.344Z,83.80
2017-06-03T21:19:29.612Z,84.00
2017-06-03T21:21:57.864Z,84.10
2017-06-03T21:24:26.116Z,84.40
2017-06-03T21:26:54.405Z,84.50
2017-06-03T21:29:23.018Z,85.20
2017-06-03T21:31:51.969Z,85.50
2017-06-03T21:34:20.472Z,86.30
2017-06-03T21:38:42.959Z,88.30
2017-06-03T21:41:09.755Z,87.60
2017-06-03T21:43:36.317Z,88.10
2017-06-03T21:46:02.923Z,88.40
2017-06-03T21:48:29.556Z,88.60
2017-06-03T21:50:56.073Z,88.50
2017-06-03T21:53:22.926Z,88.50
2017-06-03T21:55:49.466Z,88.50
2017-06-03T21:58:16.060Z,88.70
2017-06-03T22:00:42.659Z,89.00
2017-06-03T22:03:09.210Z,89.10
2017-06-03T22:05:36.030Z,89.50
2017-06-03T22:08:02.483Z,89.50
2017-06-03T22:10:28.982Z,89.80
2017-06-03T22:12:55.586Z,90.00
2017-06-03T22:15:22.876Z,90.10
2017-06-03T22:17:49.702Z,90.00
2017-06-03T22:20:16.336Z,89.90
2017-06-03T22:22:42.909Z,90.00
2017-06-03T22:25:09.512Z,90.10
2017-06-03T22:27:36.054Z,90.20
2017-06-03T22:30:02.839Z,90.20
2017-06-03T22:32:29.390Z,90.20
2017-06-03T22:34:55.945Z,90.30
2017-06-03T22:37:22.451Z,90.60
2017-06-03T22:39:49.732Z,91.40
2017-06-03T22:42:16.518Z,91.40
2017-06-03T22:44:43.087Z,91.40
2017-06-03T22:47:10.386Z,91.20
2017-06-03T22:49:37.191Z,91.20
2017-06-03T22:52:03.751Z,91.20
2017-06-03T22:54:30.310Z,91.20
2017-06-03T22:56:56.872Z,91.20
2017-06-03T22:59:23.449Z,91.20
2017-06-03T23:01:50.257Z,91.10
2017-06-03T23:04:17.537Z,91.10
2017-06-03T23:06:44.062Z,91.10
2017-06-03T23:09:10.660Z,91.40
2017-06-03T23:11:37.949Z,91.20
2017-06-03T23:14:04.892Z,91.20
2017-06-03T23:16:31.453Z,91.20
2017-06-03T23:18:58.045Z,91.10
2017-06-03T23:21:24.607Z,91.00
2017-06-03T23:23:51.141Z,91.00
2017-06-03T23:26:18.055Z,91.00
2017-06-03T23:28:44.596Z,91.30
2017-06-03T23:31:11.234Z,91.50
2017-06-03T23:33:37.800Z,91.60
2017-06-03T23:36:04.370Z,91.60
2017-06-03T23:38:31.888Z,91.20
2017-06-03T23:40:58.521Z,90.90
2017-06-03T23:43:25.070Z,90.60
2017-06-03T23:45:51.633Z,90.20
2017-06-03T23:48:18.913Z,90.10
2017-06-03T23:50:45.710Z,89.40
2017-06-03T23:53:12.277Z,89.00
2017-06-03T23:55:38.820Z,89.10
2017-06-03T23:58:05.391Z,89.30
